Time;durP1;ratioP1;P1;durP2;ratioP2;P2;SDS_P1;SDS_P2;PMS_P1;PMS_P2;Temp;Humidity;BMP_temperature;BMP_pressure;BME280_temperature;BME280_humidity;BME280_pressure;Samples;Min_cycle;Max_cycle;Signal;HPM_P1;HPM_P2
2022/09/07 00:02:25;;;;;;;8.33;5.35;;;;;;;6.36;67.62;101004.98;1650450;85;21036;-70
2022/09/07 00:04:51;;;;;;;8.80;5.83;;;;;;;6.31;67.49;101003.93;1648818;86;21420;-71
2022/09/07 00:07:18;;;;;;;10.75;7.35;;;;;;;6.26;67.59;101000.68;1648043;85;21055;-72
2022/09/07 00:09:46;;;;;;;40.17;27.35;;;;;;;6.21;67.50;101005.33;1649884;86;21021;-71
2022/09/07 00:12:13;;;;;;;45.98;32.70;;;;;;;6.15;67.61;101014.34;1649268;85;21842;-71
2022/09/07 00:14:40;;;;;;;30.52;21.33;;;;;;;6.11;67.73;101006.27;1649682;86;21080;-72
2022/09/07 00:17:07;;;;;;;29.40;21.57;;;;;;;6.11;67.79;101006.73;1648345;86;21033;-70
2022/09/07 00:19:34;;;;;;;34.20;24.77;;;;;;;6.08;67.80;101002.93;1641510;85;21079;-70
2022/09/07 00:22:01;;;;;;;43.13;30.12;;;;;;;6.06;67.74;101013.50;1649901;86;21417;-71
2022/09/07 00:24:30;;;;;;;41.68;31.02;;;;;;;6.03;67.68;101007.11;1649218;85;22543;-71
2022/09/07 00:26:58;;;;;;;36.53;27.70;;;;;;;6.00;67.70;101004.19;1658497;85;21071;-71
2022/09/07 00:29:25;;;;;;;34.48;26.20;;;;;;;5.96;67.78;101002.63;1661691;85;21031;-70
2022/09/07 00:31:52;;;;;;;35.17;24.55;;;;;;;5.92;67.70;101011.59;1664146;85;21594;-70
2022/09/07 00:34:19;;;;;;;30.92;20.65;;;;;;;5.88;67.64;101007.83;1660612;85;21396;-70
2022/09/07 00:36:45;;;;;;;28.38;20.70;;;;;;;5.84;67.60;101004.98;1664261;85;22559;-70
2022/09/07 00:39:12;;;;;;;21.77;15.25;;;;;;;5.81;67.62;101002.06;1644529;86;21475;-70
2022/09/07 00:41:39;;;;;;;16.97;12.35;;;;;;;5.80;67.62;101008.70;1652298;85;21482;-70
2022/09/07 00:44:56;;;;;;;19.35;12.53;;;;;;;5.78;67.75;101000.88;1664956;84;21617;-71
2022/09/07 00:47:33;;;;;;;19.92;12.50;;;;;;;5.78;67.86;100999.58;1648196;85;21122;-71
2022/09/07 00:50:09;;;;;;;14.10;9.50;;;;;;;5.73;67.73;100998.51;1663537;85;21901;-70
2022/09/07 00:52:36;;;;;;;10.70;8.23;;;;;;;5.71;67.76;101000.36;1660009;85;21039;-70
2022/09/07 00:55:06;;;;;;;10.15;7.05;;;;;;;5.68;67.81;100999.18;1663493;84;21052;-70
2022/09/07 00:57:33;;;;;;;11.68;6.83;;;;;;;5.67;67.92;100996.64;1664021;84;21015;-71
2022/09/07 00:59:59;;;;;;;9.48;6.78;;;;;;;5.66;68.00;100998.41;1664849;84;21099;-71
2022/09/07 01:02:26;;;;;;;10.40;6.47;;;;;;;5.67;68.07;100994.02;1663489;84;23068;-71
2022/09/07 01:04:58;;;;;;;9.60;6.17;;;;;;;5.67;68.08;100994.02;1664071;85;21004;-71
2022/09/07 01:07:24;;;;;;;12.43;7.22;;;;;;;5.67;68.08;100994.02;1663962;86;21075;-70
2022/09/07 01:09:51;;;;;;;9.93;6.60;;;;;;;5.65;68.20;100993.25;1663502;84;21479;-71
2022/09/07 01:12:19;;;;;;;11.33;6.92;;;;;;;5.62;68.25;100996.03;1663966;84;21019;-71
2022/09/07 01:14:49;;;;;;;10.60;6.72;;;;;;;5.60;68.17;100989.56;1664519;84;21893;-70
2022/09/07 01:17:51;;;;;;;10.95;6.65;;;;;;;5.55;68.05;100989.39;1658657;85;21004;-70
2022/09/07 01:20:32;;;;;;;10.88;6.65;;;;;;;5.51;67.99;100986.54;1663567;84;21047;-70
2022/09/07 01:23:55;;;;;;;9.55;6.83;;;;;;;5.44;68.07;100980.73;1662980;85;20981;-71
2022/09/07 01:26:43;;;;;;;10.68;6.60;;;;;;;5.42;68.09;100982.59;1660202;85;37251;-70
2022/09/07 01:29:36;;;;;;;8.38;6.08;;;;;;;5.37;68.26;100978.87;1663666;84;21795;-70
2022/09/07 01:32:26;;;;;;;12.65;6.55;;;;;;;5.35;68.29;100979.87;1663268;85;21083;-70
2022/09/07 01:34:53;;;;;;;12.05;7.03;;;;;;;5.35;68.44;100981.18;1665357;85;21062;-70
2022/09/07 01:37:42;;;;;;;11.90;7.20;;;;;;;5.34;68.51;100975.56;1664099;85;21091;-71
2022/09/07 01:40:19;;;;;;;13.50;7.55;;;;;;;5.35;68.51;100983.80;1663705;85;21040;-71
2022/09/07 01:42:57;;;;;;;12.47;7.45;;;;;;;5.34;68.54;100985.58;1675056;84;21870;-71
2022/09/07 01:45:27;;;;;;;14.28;7.72;;;;;;;5.35;68.56;100974.63;1663297;85;21019;-71
2022/09/07 01:47:56;;;;;;;11.90;7.72;;;;;;;5.34;68.60;100972.47;1643765;85;21112;-72
2022/09/07 01:50:34;;;;;;;13.00;7.87;;;;;;;5.34;68.67;100970.31;1663515;84;21459;-71
2022/09/07 01:53:16;;;;;;;12.55;6.78;;;;;;;5.34;68.61;100972.47;1664754;84;21031;-70
2022/09/07 01:55:47;;;;;;;14.03;7.72;;;;;;;5.31;68.58;100969.17;1663619;85;21916;-70
2022/09/07 01:58:34;;;;;;;11.15;7.37;;;;;;;5.32;68.68;100970.86;1664101;85;21032;-70
2022/09/07 02:01:09;;;;;;;12.37;7.12;;;;;;;5.29;68.76;100965.75;1663120;85;21546;-70
2022/09/07 02:03:53;;;;;;;10.88;6.58;;;;;;;5.29;68.81;100966.59;1649878;85;21094;-70
2022/09/07 02:06:32;;;;;;;11.90;7.17;;;;;;;5.29;68.79;100961.82;1663263;85;21035;-71
2022/09/07 02:09:04;;;;;;;10.95;6.62;;;;;;;5.26;68.78;100960.20;1662495;84;21851;-71
2022/09/07 02:11:41;;;;;;;11.53;7.25;;;;;;;5.23;68.68;100961.67;1642710;85;21052;-70
2022/09/07 02:14:33;;;;;;;10.63;6.92;;;;;;;5.17;68.72;100963.26;1664210;85;21043;-71
2022/09/07 02:17:35;;;;;;;10.50;6.70;;;;;;;5.14;68.74;100958.18;1638299;86;21046;-71
2022/09/07 02:20:12;;;;;;;11.20;6.92;;;;;;;5.10;68.72;100950.91;1663930;85;21051;-73
2022/09/07 02:22:42;;;;;;;12.13;6.85;;;;;;;5.06;68.70;100957.69;1663675;85;21851;-72
2022/09/07 02:25:10;;;;;;;13.10;6.67;;;;;;;5.02;68.70;100953.50;1654188;83;21064;-71
2022/09/07 02:27:46;;;;;;;10.90;6.83;;;;;;;4.99;68.68;100949.27;1652239;85;21076;-70
2022/09/07 02:30:13;;;;;;;10.60;6.60;;;;;;;4.97;68.69;100951.58;1663694;85;21024;-70
2022/09/07 02:32:39;;;;;;;11.10;6.80;;;;;;;4.94;68.75;100947.80;1664635;85;21028;-71
2022/09/07 02:35:06;;;;;;;10.72;7.35;;;;;;;4.93;68.74;100957.42;1663600;84;21792;-70
2022/09/07 02:37:33;;;;;;;11.12;6.78;;;;;;;4.90;68.66;100957.55;1663352;84;21020;-71
2022/09/07 02:40:01;;;;;;;12.53;6.65;;;;;;;4.86;68.68;100952.92;1664389;85;21045;-70
2022/09/07 02:42:32;;;;;;;10.23;6.42;;;;;;;4.82;68.70;100951.81;1664779;84;21088;-71
2022/09/07 02:44:59;;;;;;;11.00;6.47;;;;;;;4.79;68.72;100952.81;1663512;86;21040;-70
2022/09/07 02:47:40;;;;;;;13.62;6.70;;;;;;;4.80;68.78;100953.66;1662883;85;21871;-71
2022/09/07 02:50:15;;;;;;;12.35;7.28;;;;;;;4.80;68.84;100953.66;1664402;84;20920;-71
2022/09/07 02:53:10;;;;;;;11.18;6.80;;;;;;;4.80;68.85;100960.20;1662314;85;21051;-70
2022/09/07 02:55:51;;;;;;;10.63;6.58;;;;;;;4.78;68.86;100958.97;1663715;85;21048;-71
2022/09/07 02:58:48;;;;;;;10.63;6.80;;;;;;;4.75;68.85;100959.13;1651892;84;21102;-71
2022/09/07 03:01:35;;;;;;;9.70;6.55;;;;;;;4.71;68.69;100965.86;1662466;85;21860;-70
2022/09/07 03:04:29;;;;;;;11.83;7.00;;;;;;;4.66;68.65;100959.54;1662628;85;21104;-70
2022/09/07 03:07:17;;;;;;;11.25;6.85;;;;;;;4.62;68.68;100962.34;1662491;85;22143;-71
2022/09/07 03:09:49;;;;;;;11.20;6.65;;;;;;;4.57;68.75;100962.57;1662287;85;21074;-71
2022/09/07 03:12:15;;;;;;;11.70;6.60;;;;;;;4.57;68.78;100964.73;1664292;85;21079;-71
2022/09/07 03:14:42;;;;;;;12.37;6.72;;;;;;;4.57;68.84;100959.95;1664045;84;21913;-70
2022/09/07 03:17:09;;;;;;;11.33;6.65;;;;;;;4.56;68.85;100959.11;1655151;85;21012;-70
2022/09/07 03:19:36;;;;;;;11.20;6.50;;;;;;;4.56;68.75;100964.34;1665510;84;21029;-69
2022/09/07 03:22:03;;;;;;;11.38;6.12;;;;;;;4.54;68.72;100969.26;1663424;85;21028;-70
2022/09/07 03:24:30;;;;;;;9.10;5.75;;;;;;;4.51;68.57;100968.06;1664429;84;21012;-69
2022/09/07 03:26:57;;;;;;;9.40;6.08;;;;;;;4.46;68.61;100966.98;1642175;86;22069;-69
2022/09/07 03:29:23;;;;;;;10.18;6.37;;;;;;;4.44;68.72;100964.02;1649941;86;21040;-70
2022/09/07 03:31:50;;;;;;;11.78;6.65;;;;;;;4.42;68.78;100961.48;1649738;86;21020;-71
2022/09/07 03:34:16;;;;;;;11.12;6.92;;;;;;;4.43;68.84;100964.48;1650559;85;21568;-70
2022/09/07 03:36:42;;;;;;;11.40;6.35;;;;;;;4.45;68.93;100970.52;1644037;86;21021;-70
2022/09/07 03:39:10;;;;;;;14.63;6.53;;;;;;;4.46;68.96;100972.21;1648496;86;21900;-70
2022/09/07 03:41:37;;;;;;;10.35;6.05;;;;;;;4.45;68.97;100969.67;1648603;86;21572;-70
2022/09/07 03:44:04;;;;;;;10.95;6.17;;;;;;;4.44;68.89;100971.44;1628061;86;21083;-70
2022/09/07 03:46:31;;;;;;;9.60;5.97;;;;;;;4.45;68.91;100974.91;1646432;86;21495;-70
2022/09/07 03:48:57;;;;;;;11.43;6.20;;;;;;;4.47;68.90;100973.06;1649691;86;21563;-69
2022/09/07 03:51:24;;;;;;;11.15;6.30;;;;;;;4.45;68.91;100975.75;1650503;85;21818;-70
2022/09/07 03:53:50;;;;;;;10.38;6.40;;;;;;;4.46;68.95;100969.59;1649433;86;21088;-70
2022/09/07 03:56:20;;;;;;;11.53;6.42;;;;;;;4.49;69.05;100975.14;1648597;86;21080;-70
2022/09/07 03:58:47;;;;;;;10.23;6.22;;;;;;;4.53;69.12;100972.77;1646855;85;21108;-70
2022/09/07 04:01:20;;;;;;;10.95;6.70;;;;;;;4.55;69.17;100970.50;1629877;85;21450;-70
2022/09/07 04:03:47;;;;;;;10.50;6.33;;;;;;;4.59;69.11;100972.50;1650069;86;21859;-70
2022/09/07 04:06:14;;;;;;;11.63;6.35;;;;;;;4.61;69.12;100974.58;1649611;86;21071;-70
2022/09/07 04:08:42;;;;;;;12.28;6.70;;;;;;;4.63;69.11;100977.13;1651160;85;21027;-70
2022/09/07 04:11:12;;;;;;;13.28;7.80;;;;;;;4.64;69.12;100977.55;1650547;85;21020;-71
2022/09/07 04:13:40;;;;;;;13.80;7.62;;;;;;;4.66;69.20;100987.02;1649545;85;21092;-71
2022/09/07 04:16:21;;;;;;;12.80;8.35;;;;;;;4.71;69.19;100984.17;1651285;86;21757;-72
2022/09/07 04:18:49;;;;;;;14.58;8.68;;;;;;;4.73;69.24;100980.59;1648194;86;21025;-71
2022/09/07 04:21:20;;;;;;;20.15;9.08;;;;;;;4.79;69.25;100984.68;1650379;85;20997;-72
2022/09/07 04:23:46;;;;;;;18.77;10.60;;;;;;;4.85;69.31;100985.72;1650825;86;20997;-71
2022/09/07 04:26:16;;;;;;;17.30;10.10;;;;;;;4.89;69.35;100983.34;1650932;86;21522;-72
2022/09/07 04:28:44;;;;;;;18.65;10.05;;;;;;;4.92;69.42;100985.80;1636211;85;22245;-71
2022/09/07 04:31:15;;;;;;;16.23;10.50;;;;;;;4.97;69.54;100981.68;1628412;86;21056;-71
2022/09/07 04:33:45;;;;;;;21.15;10.58;;;;;;;5.04;69.67;100986.56;1632044;87;21459;-71
2022/09/07 04:36:11;;;;;;;17.50;11.30;;;;;;;5.12;69.79;100990.98;1633840;86;21025;-71
2022/09/07 04:38:41;;;;;;;21.20;10.82;;;;;;;5.19;69.88;100987.59;1620040;87;21057;-72
2022/09/07 04:41:15;;;;;;;21.42;11.48;;;;;;;5.29;69.96;100985.39;1634114;86;21864;-72
2022/09/07 04:43:42;;;;;;;18.10;10.60;;;;;;;5.38;70.04;100987.58;1632689;86;21036;-71
2022/09/07 04:46:22;;;;;;;17.77;11.03;;;;;;;5.48;70.07;100985.36;1631276;86;21045;-69
2022/09/07 04:48:55;;;;;;;21.60;12.13;;;;;;;5.59;70.17;100982.59;1633097;86;21004;-70
2022/09/07 04:51:24;;;;;;;19.60;11.85;;;;;;;5.70;70.25;100984.72;1629875;87;21454;-70
2022/09/07 04:53:52;;;;;;;22.22;12.33;;;;;;;5.82;70.30;100988.03;1629420;86;21901;-71
2022/09/07 04:56:19;;;;;;;25.02;12.55;;;;;;;5.95;70.37;100988.28;1622582;86;21037;-72
2022/09/07 04:58:46;;;;;;;22.30;12.47;;;;;;;6.06;70.38;100987.27;1630689;86;21044;-73
2022/09/07 05:01:15;;;;;;;19.67;12.55;;;;;;;6.18;70.39;100984.52;1632786;86;21675;-70
2022/09/07 05:03:42;;;;;;;23.62;12.13;;;;;;;6.32;70.42;100991.19;1630079;87;21048;-69
2022/09/07 05:06:10;;;;;;;24.65;12.00;;;;;;;6.46;70.49;100987.84;1625061;86;22345;-70
2022/09/07 05:08:41;;;;;;;27.25;13.28;;;;;;;6.61;70.59;100989.66;1627434;86;20998;-68
2022/09/07 05:11:09;;;;;;;19.90;12.00;;;;;;;6.76;70.67;100992.80;1633989;86;21549;-71
2022/09/07 05:13:36;;;;;;;23.35;12.37;;;;;;;6.93;70.72;100981.36;1629775;87;21675;-71
2022/09/07 05:16:18;;;;;;;21.07;11.22;;;;;;;7.11;70.75;100980.35;1635213;86;21100;-71
2022/09/07 05:18:57;;;;;;;18.92;11.10;;;;;;;7.29;70.76;100983.74;1633988;86;21951;-71
2022/09/07 05:21:27;;;;;;;17.80;11.43;;;;;;;7.49;70.73;100981.30;1628567;86;21076;-71
2022/09/07 05:23:55;;;;;;;22.80;11.55;;;;;;;7.71;70.57;100984.38;1634140;86;21083;-70
2022/09/07 05:26:23;;;;;;;17.40;10.72;;;;;;;7.92;70.51;100983.63;1600833;89;21052;-72
2022/09/07 05:28:51;;;;;;;16.62;10.95;;;;;;;8.14;70.22;100982.36;1639239;86;20988;-70
2022/09/07 05:31:20;;;;;;;18.50;11.00;;;;;;;8.35;70.03;100982.88;1665388;85;21940;-70
2022/09/07 05:33:56;;;;;;;19.48;10.70;;;;;;;8.53;69.76;100976.03;1673647;85;21037;-70
2022/09/07 05:36:25;;;;;;;16.67;9.80;;;;;;;8.74;69.49;100980.44;1665906;85;21052;-71
2022/09/07 05:38:53;;;;;;;19.35;10.35;;;;;;;8.95;69.01;100980.88;1646782;85;20961;-71
2022/09/07 05:41:23;;;;;;;17.67;9.53;;;;;;;9.16;68.70;100979.98;1642436;86;21042;-71
2022/09/07 05:43:50;;;;;;;16.87;9.70;;;;;;;9.34;68.26;100981.92;1666127;85;21823;-71
2022/09/07 05:46:16;;;;;;;17.90;10.20;;;;;;;9.53;68.02;100981.10;1663962;85;20980;-71
2022/09/07 05:48:43;;;;;;;19.20;9.90;;;;;;;9.71;67.43;100981.22;1665424;85;21019;-72
2022/09/07 05:51:12;;;;;;;18.37;9.20;;;;;;;9.88;67.06;100981.89;1666684;85;20987;-72
2022/09/07 05:53:43;;;;;;;14.93;8.80;;;;;;;10.02;66.74;100985.76;1660869;85;21051;-71
2022/09/07 05:56:10;;;;;;;16.82;8.30;;;;;;;10.16;66.18;100975.13;1664256;84;21915;-71
2022/09/07 05:58:38;;;;;;;11.65;7.30;;;;;;;10.32;65.62;100978.42;1666059;84;21074;-72
2022/09/07 06:01:10;;;;;;;10.58;6.42;;;;;;;10.45;65.00;100985.05;1665781;84;21000;-72
2022/09/07 06:03:40;;;;;;;9.70;6.00;;;;;;;10.58;64.31;100983.23;1647083;86;21099;-72
2022/09/07 06:06:14;;;;;;;10.05;5.62;;;;;;;10.74;63.51;100982.17;1665878;84;21199;-72
2022/09/07 06:08:46;;;;;;;4.45;3.20;;;;;;;10.86;62.91;100983.46;1659862;85;22956;-73
2022/09/07 06:11:16;;;;;;;8.98;3.75;;;;;;;11.00;61.76;100978.53;1665684;84;21083;-71
2022/09/07 06:13:43;;;;;;;6.42;3.90;;;;;;;11.18;60.82;100982.95;1653934;84;21072;-71
2022/09/07 06:16:12;;;;;;;5.08;3.20;;;;;;;11.36;60.11;100985.59;1594035;88;21497;-71
2022/09/07 06:18:44;;;;;;;6.37;3.60;;;;;;;11.49;59.10;100981.59;1641749;84;21008;-72
2022/09/07 06:21:19;;;;;;;5.28;3.62;;;;;;;11.60;58.66;100984.28;1666127;85;21983;-71
2022/09/07 06:23:46;;;;;;;6.50;3.80;;;;;;;11.74;58.34;100984.56;1675260;84;21430;-72
2022/09/07 06:26:15;;;;;;;5.42;3.62;;;;;;;11.88;58.30;100992.37;1665283;84;21042;-69
2022/09/07 06:28:44;;;;;;;5.75;3.30;;;;;;;12.08;57.61;100986.89;1657232;85;21472;-77
2022/09/07 06:31:16;;;;;;;5.20;3.00;;;;;;;12.25;57.09;100993.05;1651296;85;20917;-74
2022/09/07 06:33:43;;;;;;;5.45;3.05;;;;;;;12.35;55.27;100993.66;1653696;85;22637;-71
2022/09/07 06:36:19;;;;;;;4.87;3.05;;;;;;;12.40;54.78;100990.19;1648887;85;21056;-71
2022/09/07 06:38:46;;;;;;;6.30;3.00;;;;;;;12.45;53.78;101000.81;1649224;86;21020;-71
2022/09/07 06:41:17;;;;;;;4.78;2.98;;;;;;;12.46;53.46;100997.20;1622766;86;21028;-70
2022/09/07 06:43:44;;;;;;;5.55;2.42;;;;;;;12.49;53.28;100994.30;1652172;86;21443;-71
2022/09/07 06:46:10;;;;;;;5.05;2.27;;;;;;;12.58;53.13;100996.23;1652462;86;21739;-71
2022/09/07 06:48:38;;;;;;;2.77;1.80;;;;;;;12.70;52.87;100997.56;1648388;86;21012;-71
2022/09/07 06:51:08;;;;;;;2.95;2.10;;;;;;;12.84;51.58;100996.85;1626039;88;21462;-72
2022/09/07 06:53:36;;;;;;;3.02;2.30;;;;;;;12.99;50.71;100999.23;1645095;86;21009;-71
2022/09/07 06:56:08;;;;;;;3.22;2.17;;;;;;;13.11;50.41;101003.08;1652177;85;20957;-70
2022/09/07 06:58:36;;;;;;;4.20;2.50;;;;;;;13.18;49.79;100996.31;1656268;86;21872;-71
2022/09/07 07:01:15;;;;;;;3.47;2.12;;;;;;;13.27;49.83;101000.08;1650933;86;21559;-71
2022/09/07 07:03:42;;;;;;;3.10;2.25;;;;;;;13.39;49.75;101004.87;1651825;86;21045;-69
2022/09/07 07:06:09;;;;;;;3.50;2.62;;;;;;;13.51;48.47;101002.56;1651799;85;21049;-70
2022/09/07 07:08:35;;;;;;;5.30;2.80;;;;;;;13.57;48.70;101007.35;1651336;86;21009;-70
2022/09/07 07:11:10;;;;;;;5.53;3.05;;;;;;;13.63;48.12;100999.38;1651404;86;21826;-70
2022/09/07 07:13:40;;;;;;;6.53;2.90;;;;;;;13.69;48.04;101002.35;1652520;86;21029;-70
2022/09/07 07:16:12;;;;;;;5.47;2.60;;;;;;;13.79;47.93;101001.59;1651791;85;21029;-71
2022/09/07 07:18:39;;;;;;;5.95;3.77;;;;;;;13.87;47.29;101003.97;1650849;86;21526;-71
2022/09/07 07:21:10;;;;;;;6.15;3.83;;;;;;;13.97;47.52;101006.22;1648692;85;21189;-68
2022/09/07 07:23:37;;;;;;;5.25;3.22;;;;;;;14.03;47.37;100997.75;1650934;86;21919;-71
2022/09/07 07:26:08;;;;;;;4.97;2.92;;;;;;;14.03;46.38;101005.72;1650308;85;21037;-70
2022/09/07 07:28:37;;;;;;;6.62;3.65;;;;;;;14.09;46.26;101007.03;1646763;86;21108;-71
2022/09/07 07:31:06;;;;;;;5.10;3.10;;;;;;;14.19;46.60;101000.45;1641445;86;21048;-71
2022/09/07 07:33:35;;;;;;;6.85;3.35;;;;;;;14.32;46.16;101005.91;1644306;86;21060;-71
2022/09/07 07:36:24;;;;;;;4.97;3.72;;;;;;;14.42;45.84;101006.46;1649276;85;21943;-71
2022/09/07 07:38:53;;;;;;;12.18;4.15;;;;;;;14.55;45.91;100999.98;1649457;85;20999;-70
2022/09/07 07:41:22;;;;;;;6.35;4.72;;;;;;;14.71;45.75;100998.17;1650786;85;20925;-70
2022/09/07 07:43:55;;;;;;;7.33;4.62;;;;;;;14.81;44.31;100991.08;1644121;85;21005;-69
2022/09/07 07:46:23;;;;;;;8.60;4.33;;;;;;;14.79;44.30;100987.72;1633779;86;21087;-71
2022/09/07 07:48:50;;;;;;;8.23;4.55;;;;;;;14.81;43.99;100984.92;1651443;86;21839;-71
2022/09/07 07:51:19;;;;;;;6.92;4.22;;;;;;;14.82;43.22;100985.27;1650691;85;21044;-70
2022/09/07 07:53:47;;;;;;;7.40;4.58;;;;;;;14.89;43.40;100989.09;1650864;85;21076;-68
2022/09/07 07:56:13;;;;;;;6.70;4.70;;;;;;;14.96;43.23;100970.75;1642806;86;21048;-71
2022/09/07 07:58:45;;;;;;;6.70;3.98;;;;;;;14.98;43.30;100978.12;1650872;85;21004;-69
2022/09/07 08:01:15;;;;;;;5.62;3.77;;;;;;;15.05;43.36;100969.94;1650867;86;21853;-70
2022/09/07 08:03:44;;;;;;;8.50;4.90;;;;;;;15.16;43.43;100973.34;1648709;86;21506;-70
2022/09/07 08:06:14;;;;;;;5.95;4.08;;;;;;;15.29;43.06;100970.42;1637207;86;21001;-69
2022/09/07 08:08:43;;;;;;;5.83;3.60;;;;;;;15.36;42.05;100975.55;1650741;86;21339;-70
2022/09/07 08:11:19;;;;;;;5.47;3.47;;;;;;;15.32;41.19;100971.47;1644931;85;21062;-68
2022/09/07 08:13:50;;;;;;;7.50;4.05;;;;;;;15.35;41.38;100969.88;1651234;85;21948;-70
2022/09/07 08:16:18;;;;;;;6.53;4.58;;;;;;;15.43;41.71;100974.00;1651554;86;21028;-69
2022/09/07 08:18:44;;;;;;;6.67;4.70;;;;;;;15.52;41.43;100960.84;1651303;85;21486;-70
2022/09/07 08:21:14;;;;;;;7.78;4.10;;;;;;;15.56;42.22;100963.59;1643149;86;21085;-70
2022/09/07 08:23:41;;;;;;;5.55;4.28;;;;;;;15.63;41.11;100958.94;1631114;86;21062;-69
2022/09/07 08:26:08;;;;;;;6.87;3.98;;;;;;;15.64;41.44;100955.30;1648754;86;21850;-69
2022/09/07 08:28:37;;;;;;;6.00;4.25;;;;;;;15.69;41.22;100952.19;1646260;86;21018;-70
2022/09/07 08:31:06;;;;;;;8.28;5.20;;;;;;;15.78;41.85;100947.84;1650190;86;21041;-70
2022/09/07 08:33:36;;;;;;;8.45;5.20;;;;;;;15.76;41.78;100950.66;1651444;86;21084;-70
2022/09/07 08:36:07;;;;;;;7.87;5.20;;;;;;;15.66;42.40;100955.98;1650955;86;21427;-69
2022/09/07 08:38:35;;;;;;;6.22;4.20;;;;;;;15.63;42.36;100945.63;1651237;86;21913;-70
2022/09/07 08:41:18;;;;;;;8.48;3.87;;;;;;;15.80;40.88;100942.72;1653188;86;21036;-68
2022/09/07 08:43:56;;;;;;;7.85;3.90;;;;;;;16.08;40.77;100944.16;1649713;86;21001;-69
2022/09/07 08:46:57;;;;;;;8.10;5.03;;;;;;;16.35;40.01;100934.91;1631706;85;21119;-69
2022/09/07 08:49:47;;;;;;;8.15;5.17;;;;;;;16.56;40.29;100930.67;1613993;86;21056;-70
2022/09/07 08:53:02;;;;;;;8.28;5.33;;;;;;;16.70;40.42;100926.73;1652643;85;21979;-69
2022/09/07 08:55:33;;;;;;;8.30;5.10;;;;;;;16.74;40.95;100920.94;1648412;86;21479;-69
2022/09/07 08:58:18;;;;;;;9.15;5.00;;;;;;;16.90;39.10;100914.13;1651934;86;21001;-69
2022/09/07 09:00:45;;;;;;;8.70;4.90;;;;;;;16.91;38.61;100912.64;1650646;86;21082;-69
2022/09/07 09:03:23;;;;;;;9.28;4.90;;;;;;;16.90;37.62;100909.63;1633666;86;21056;-69
2022/09/07 09:06:17;;;;;;;11.20;5.58;;;;;;;16.86;38.07;100904.23;1645399;86;21971;-69
2022/09/07 09:09:04;;;;;;;8.28;5.97;;;;;;;16.84;39.10;100909.72;1650659;86;21084;-70
2022/09/07 09:12:05;;;;;;;9.35;5.85;;;;;;;16.78;39.89;100900.12;1642255;86;21309;-70
2022/09/07 09:15:17;;;;;;;9.50;5.90;;;;;;;16.77;40.65;100899.78;1651252;85;20996;-69
2022/09/07 09:18:13;;;;;;;12.23;6.10;;;;;;;16.99;40.60;100902.06;1642529;86;21015;-70
2022/09/07 09:20:58;;;;;;;9.65;6.50;;;;;;;17.23;40.42;100895.28;1617955;86;21826;-70
2022/09/07 09:23:29;;;;;;;11.18;6.72;;;;;;;17.28;40.05;100890.34;1630026;86;21028;-70
2022/09/07 09:26:00;;;;;;;12.58;6.17;;;;;;;17.22;40.29;100890.94;1624131;86;21490;-71
2022/09/07 09:28:27;;;;;;;9.90;6.50;;;;;;;17.16;40.47;100892.38;1635416;86;21556;-70
2022/09/07 09:30:54;;;;;;;11.08;6.78;;;;;;;17.06;40.52;100897.78;1642598;85;21040;-70
2022/09/07 09:33:24;;;;;;;12.03;6.75;;;;;;;16.86;40.08;100895.73;1647603;86;22541;-69
2022/09/07 09:35:58;;;;;;;13.13;7.05;;;;;;;16.66;40.33;100891.96;1650403;86;21032;-68
2022/09/07 09:38:38;;;;;;;11.35;6.80;;;;;;;16.54;40.25;100892.16;1650566;85;21024;-69
2022/09/07 09:41:11;;;;;;;10.78;6.40;;;;;;;16.48;40.89;100886.56;1650347;86;21297;-69
2022/09/07 09:43:54;;;;;;;10.23;6.80;;;;;;;16.47;41.16;100884.89;1650346;85;21135;-70
2022/09/07 09:46:27;;;;;;;6.83;4.55;;;;;;;16.53;41.45;100883.81;1651417;85;21867;-71
2022/09/07 09:48:57;;;;;;;;;;;;;;;16.77;42.16;100888.63;1637804;86;21040;-72
2022/09/07 09:51:25;;;;;;;14.43;6.90;;;;;;;17.14;41.00;100878.34;1650064;86;20201;-73
2022/09/07 09:54:05;;;;;;;12.25;7.95;;;;;;;17.54;40.86;100884.55;1628416;86;21427;-69
2022/09/07 09:56:42;;;;;;;11.63;7.50;;;;;;;18.03;40.39;100876.91;1624999;86;21028;-68
2022/09/07 09:59:17;;;;;;;9.20;6.85;;;;;;;18.56;38.49;100864.66;1644606;86;21962;-70
2022/09/07 10:01:45;;;;;;;11.73;6.58;;;;;;;18.96;36.32;100861.78;1646443;86;21110;-70
2022/09/07 10:04:30;;;;;;;10.63;6.70;;;;;;;19.24;35.32;100860.16;1613767;86;21024;-72
2022/09/07 10:07:05;;;;;;;13.83;6.78;;;;;;;19.39;35.10;100857.13;1650283;86;21079;-74
2022/09/07 10:09:39;;;;;;;10.43;7.12;;;;;;;19.42;34.36;100858.16;1646357;86;20945;-70
2022/09/07 10:12:09;;;;;;;10.38;6.47;;;;;;;19.35;34.98;100856.64;1619440;86;21941;-70
2022/09/07 10:14:42;;;;;;;11.85;6.60;;;;;;;19.24;34.93;100855.63;1610018;87;21016;-69
2022/09/07 10:17:13;;;;;;;8.60;5.50;;;;;;;19.05;35.07;100859.45;1626685;86;20998;-70
2022/09/07 10:19:42;;;;;;;11.53;7.47;;;;;;;18.83;34.69;100864.94;1649961;86;21404;-70
2022/09/07 10:22:34;;;;;;;11.12;7.05;;;;;;;18.61;35.09;100866.83;1643851;86;21071;-71
2022/09/07 10:25:06;;;;;;;9.48;6.20;;;;;;;18.44;35.76;100867.79;1652744;86;22023;-69
2022/09/07 10:27:36;;;;;;;9.67;5.90;;;;;;;18.33;36.13;100868.88;1645545;86;20954;-69
2022/09/07 10:30:13;;;;;;;7.62;5.33;;;;;;;18.33;35.90;100870.72;1655343;85;21751;-70
2022/09/07 10:33:01;;;;;;;10.32;5.92;;;;;;;18.34;35.70;100866.58;1631650;85;21024;-71
2022/09/07 10:35:37;;;;;;;8.33;5.87;;;;;;;18.40;36.29;100857.89;1609800;88;21523;-71
2022/09/07 10:38:15;;;;;;;9.50;5.75;;;;;;;18.38;35.77;100859.89;1652041;86;21961;-70
2022/09/07 10:40:46;;;;;;;9.43;6.00;;;;;;;18.34;36.15;100858.55;1650951;86;21002;-69
2022/09/07 10:43:33;;;;;;;8.20;5.75;;;;;;;18.28;36.31;100853.83;1652393;85;20957;-69
2022/09/07 10:46:30;;;;;;;8.50;5.50;;;;;;;18.26;36.41;100851.32;1652711;85;20961;-69
2022/09/07 10:49:23;;;;;;;9.03;5.22;;;;;;;18.25;36.03;100850.98;1652103;85;21040;-69
2022/09/07 10:52:06;;;;;;;;;;;;;;;18.24;35.83;100845.30;1654877;85;21972;-71
2022/09/07 10:54:53;;;;;;;7.67;5.25;;;;;;;18.38;36.45;100840.33;1652451;86;20595;-70
2022/09/07 10:57:51;;;;;;;8.08;5.25;;;;;;;18.50;36.53;100844.39;1641439;85;20994;-69
2022/09/07 11:00:20;;;;;;;7.33;5.03;;;;;;;18.51;35.44;100848.23;1652556;86;21042;-70
2022/09/07 11:03:01;;;;;;;7.25;5.08;;;;;;;18.34;35.85;100842.50;1652570;85;21037;-69
2022/09/07 11:05:49;;;;;;;9.40;5.15;;;;;;;18.30;35.88;100845.14;1652161;86;21928;-69
2022/09/07 11:08:48;;;;;;;7.97;5.40;;;;;;;18.24;36.24;100843.13;1645599;86;21059;-69
2022/09/07 11:11:42;;;;;;;7.95;5.05;;;;;;;18.28;36.25;100834.61;1625908;88;21098;-69
2022/09/07 11:14:15;;;;;;;7.90;5.08;;;;;;;18.46;35.96;100829.67;1652255;85;21004;-70
2022/09/07 11:16:52;;;;;;;6.37;4.83;;;;;;;18.49;34.12;100822.66;1652209;86;21013;-70
2022/09/07 11:19:33;;;;;;;7.65;4.78;;;;;;;18.45;35.22;100822.66;1652463;86;21751;-70
2022/09/07 11:22:08;;;;;;;6.40;4.78;;;;;;;18.67;35.09;100818.06;1652344;85;20866;-70
2022/09/07 11:24:58;;;;;;;8.90;5.05;;;;;;;19.13;35.95;100815.80;1651800;86;21006;-70
2022/09/07 11:27:42;;;;;;;7.30;5.30;;;;;;;19.67;34.55;100806.73;1652291;86;21090;-71
2022/09/07 11:30:19;;;;;;;7.72;4.62;;;;;;;20.10;34.22;100801.95;1643777;85;21083;-70
2022/09/07 11:33:00;;;;;;;6.87;4.65;;;;;;;20.55;33.74;100795.89;1663859;86;22638;-70
2022/09/07 11:36:01;;;;;;;6.53;4.53;;;;;;;20.95;33.03;100800.69;1666479;86;21037;-70
2022/09/07 11:38:34;;;;;;;7.70;5.17;;;;;;;21.21;33.33;100795.77;1666122;86;20973;-70
2022/09/07 11:41:24;;;;;;;8.78;4.87;;;;;;;21.34;31.97;100792.01;1666893;86;20956;-70
2022/09/07 11:44:15;;;;;;;7.35;4.83;;;;;;;21.24;31.49;100792.73;1666594;86;21665;-69
2022/09/07 11:46:50;;;;;;;7.28;5.28;;;;;;;20.95;31.03;100791.30;1667673;85;21822;-70
2022/09/07 11:49:29;;;;;;;8.95;5.10;;;;;;;20.67;31.98;100785.10;1666664;86;21093;-70
2022/09/07 11:52:03;;;;;;;8.13;4.85;;;;;;;20.75;32.40;100788.22;1666736;84;20992;-70
2022/09/07 11:54:45;;;;;;;7.60;5.20;;;;;;;21.01;32.25;100789.22;1666949;84;20933;-70
2022/09/07 11:57:42;;;;;;;11.73;5.30;;;;;;;21.23;31.52;100791.55;1666710;84;20963;-70